Time;durP1;ratioP1;P1;durP2;ratioP2;P2;SDS_P1;SDS_P2;PMS_P1;PMS_P2;Temp;Humidity;BMP_temperature;BMP_pressure;BME280_temperature;BME280_humidity;BME280_pressure;Samples;Min_cycle;Max_cycle;Signal;HPM_P1;HPM_P2
2023/12/16 00:00:35;;;;;;;24.83;11.87;;;8.90;49.50;;;;;;5057848;28;20393;-72
2023/12/16 00:03:01;;;;;;;26.00;11.33;;;8.90;48.50;;;;;;5052341;28;20392;-73
2023/12/16 00:05:26;;;;;;;36.30;12.40;;;9.00;48.40;;;;;;5052689;28;20411;-71
2023/12/16 00:07:52;;;;;;;33.77;11.17;;;8.90;49.50;;;;;;5051949;28;20443;-71
2023/12/16 00:10:18;;;;;;;32.53;10.90;;;8.80;50.20;;;;;;5052004;28;20421;-71
2023/12/16 00:12:43;;;;;;;23.83;9.98;;;8.90;49.50;;;;;;5052153;28;20385;-74
2023/12/16 00:15:10;;;;;;;27.23;10.10;;;8.90;49.20;;;;;;5051666;28;20439;-70
2023/12/16 00:17:35;;;;;;;21.00;10.45;;;9.00;48.70;;;;;;5051635;28;20515;-72
2023/12/16 00:20:01;;;;;;;27.00;11.47;;;9.00;48.20;;;;;;5051952;28;20408;-72
2023/12/16 00:22:27;;;;;;;23.33;10.30;;;8.90;49.20;;;;;;5052023;28;20421;-72
2023/12/16 00:24:52;;;;;;;20.17;10.23;;;8.80;49.80;;;;;;5051895;28;20516;-71
2023/12/16 00:27:18;;;;;;;23.63;10.77;;;8.80;50.00;;;;;;5051720;28;20974;-72
2023/12/16 00:29:43;;;;;;;26.90;9.50;;;8.90;49.40;;;;;;5051901;28;20386;-73
2023/12/16 00:32:09;;;;;;;27.58;10.32;;;8.80;49.80;;;;;;5051803;28;20431;-71
2023/12/16 00:34:34;;;;;;;23.95;10.13;;;8.80;49.60;;;;;;5051479;28;20385;-72
2023/12/16 00:37:05;;;;;;;29.70;9.85;;;9.00;48.10;;;;;;5051408;28;20396;-71
2023/12/16 00:39:31;;;;;;;24.00;9.60;;;9.00;47.30;;;;;;5051267;28;20382;-72
2023/12/16 00:41:56;;;;;;;19.92;9.35;;;8.80;49.20;;;;;;5051721;28;20716;-71
2023/12/16 00:44:22;;;;;;;26.48;10.38;;;8.90;49.00;;;;;;5051047;28;20389;-72
2023/12/16 00:46:47;;;;;;;24.50;9.90;;;8.90;48.60;;;;;;5051254;28;20408;-74
2023/12/16 00:49:13;;;;;;;24.02;9.02;;;8.90;48.20;;;;;;5051320;28;20385;-72
2023/12/16 00:51:39;;;;;;;29.83;9.57;;;9.00;47.70;;;;;;5051359;28;20400;-70
2023/12/16 00:54:04;;;;;;;26.85;8.68;;;8.90;48.10;;;;;;5050934;28;20385;-71
2023/12/16 00:56:30;;;;;;;25.50;8.73;;;8.90;47.20;;;;;;5051124;28;20386;-73
2023/12/16 00:58:56;;;;;;;22.88;8.50;;;8.90;48.00;;;;;;5051361;28;20722;-71
2023/12/16 01:01:22;;;;;;;21.42;7.88;;;8.90;47.10;;;;;;5051232;28;20913;-72
2023/12/16 01:03:48;;;;;;;28.80;8.30;;;8.90;47.70;;;;;;5054746;28;20389;-73
2023/12/16 01:06:14;;;;;;;21.35;7.82;;;8.80;47.70;;;;;;5052233;28;20434;-72
2023/12/16 01:08:39;;;;;;;21.90;8.40;;;8.80;46.90;;;;;;5051208;28;20409;-71
2023/12/16 01:11:05;;;;;;;21.27;7.33;;;8.90;45.20;;;;;;5051154;28;20444;-73
2023/12/16 01:13:31;;;;;;;21.10;7.43;;;8.90;45.80;;;;;;5050912;28;20381;-72
2023/12/16 01:15:56;;;;;;;16.57;7.93;;;8.80;46.00;;;;;;5051064;28;21051;-74
2023/12/16 01:18:23;;;;;;;23.63;7.80;;;8.80;46.50;;;;;;5051156;28;20389;-70
2023/12/16 01:20:50;;;;;;;22.30;7.50;;;8.80;45.50;;;;;;5051253;28;20476;-73
2023/12/16 01:23:15;;;;;;;20.50;7.95;;;8.90;46.20;;;;;;5050975;28;20479;-72
2023/12/16 01:25:41;;;;;;;20.37;7.43;;;8.80;46.60;;;;;;5050677;28;20424;-71
2023/12/16 01:28:06;;;;;;;21.13;7.63;;;8.80;45.90;;;;;;5050886;28;20820;-72
2023/12/16 01:30:32;;;;;;;21.25;7.50;;;8.90;45.00;;;;;;5050577;28;20496;-72
2023/12/16 01:32:58;;;;;;;19.50;6.53;;;8.80;45.90;;;;;;5051164;28;20460;-73
2023/12/16 01:35:23;;;;;;;20.73;7.60;;;8.70;46.70;;;;;;5049167;28;20382;-71
2023/12/16 01:37:49;;;;;;;17.05;7.50;;;8.70;46.70;;;;;;5050893;28;20389;-73
2023/12/16 01:40:14;;;;;;;16.90;7.20;;;8.70;47.20;;;;;;5050810;28;20397;-72
2023/12/16 01:42:40;;;;;;;22.00;7.23;;;8.70;46.80;;;;;;5050746;28;20515;-72
2023/12/16 01:45:06;;;;;;;19.83;6.45;;;8.80;46.10;;;;;;5051157;28;20385;-71
2023/12/16 01:47:32;;;;;;;23.50;7.25;;;8.80;45.90;;;;;;5051509;28;20405;-74
2023/12/16 01:49:58;;;;;;;20.25;6.97;;;8.90;45.20;;;;;;5051228;28;20382;-71
2023/12/16 01:52:25;;;;;;;24.33;7.28;;;9.00;44.50;;;;;;5050988;28;20417;-72
2023/12/16 01:54:50;;;;;;;17.15;6.00;;;8.90;45.30;;;;;;5051056;28;20420;-72
2023/12/16 01:57:16;;;;;;;17.50;6.47;;;9.00;43.90;;;;;;5051474;28;20389;-71
2023/12/16 01:59:42;;;;;;;19.73;7.15;;;8.90;44.00;;;;;;5054448;28;20389;-71
2023/12/16 02:02:09;;;;;;;18.95;6.88;;;8.90;44.50;;;;;;5050084;28;20394;-72
2023/12/16 02:04:35;;;;;;;18.90;6.68;;;8.90;43.70;;;;;;5050079;28;20393;-73
2023/12/16 02:07:00;;;;;;;13.57;5.90;;;8.90;43.40;;;;;;5050928;28;20413;-73
2023/12/16 02:09:26;;;;;;;23.25;7.32;;;8.90;43.70;;;;;;5051308;28;20380;-72
2023/12/16 02:11:52;;;;;;;17.02;6.50;;;8.90;43.40;;;;;;5051099;28;20876;-72
2023/12/16 02:14:18;;;;;;;19.23;6.15;;;9.00;42.70;;;;;;5050507;28;20899;-73
2023/12/16 02:16:44;;;;;;;21.67;6.77;;;8.90;43.20;;;;;;5050178;28;20386;-70
2023/12/16 02:19:17;;;;;;;18.67;6.40;;;8.90;43.30;;;;;;5050509;28;20373;-73
2023/12/16 02:21:42;;;;;;;19.00;5.97;;;8.90;43.50;;;;;;5050507;28;20488;-71
2023/12/16 02:24:08;;;;;;;19.92;7.07;;;8.90;42.60;;;;;;5050237;28;20428;-71
2023/12/16 02:26:34;;;;;;;20.43;6.50;;;8.90;43.30;;;;;;5082729;22;20424;-73
2023/12/16 02:28:59;;;;;;;20.48;6.90;;;8.80;44.40;;;;;;5084179;28;20384;-72
2023/12/16 02:31:25;;;;;;;15.70;6.60;;;8.90;42.80;;;;;;5082945;28;20388;-71
2023/12/16 02:33:50;;;;;;;18.07;6.40;;;8.90;42.40;;;;;;5081397;28;20742;-72
2023/12/16 02:36:16;;;;;;;19.77;6.53;;;8.90;43.20;;;;;;5084567;28;20388;-73
2023/12/16 02:38:41;;;;;;;17.17;6.00;;;8.90;42.50;;;;;;5082974;28;20420;-73
2023/12/16 02:41:07;;;;;;;21.70;6.40;;;8.90;42.80;;;;;;5082592;28;20535;-73
2023/12/16 02:43:33;;;;;;;16.20;5.83;;;8.90;43.50;;;;;;5086517;28;20394;-73
2023/12/16 02:45:59;;;;;;;19.52;5.85;;;9.00;41.80;;;;;;5078952;28;20384;-72
2023/12/16 02:48:24;;;;;;;22.63;6.70;;;8.90;41.90;;;;;;5074179;28;20395;-73
2023/12/16 02:50:50;;;;;;;20.25;6.30;;;8.90;41.90;;;;;;5074427;28;20388;-73
2023/12/16 02:53:15;;;;;;;15.77;5.67;;;8.80;42.40;;;;;;5073846;28;20372;-73
2023/12/16 02:55:41;;;;;;;18.93;5.50;;;9.00;41.10;;;;;;5073941;28;20437;-72
2023/12/16 02:58:07;;;;;;;20.03;6.10;;;9.00;40.90;;;;;;5074261;28;20387;-73
2023/12/16 03:00:32;;;;;;;17.83;6.00;;;8.90;41.30;;;;;;5073735;28;20477;-73
2023/12/16 03:02:58;;;;;;;14.83;6.10;;;8.90;41.70;;;;;;5074034;28;20445;-73
2023/12/16 03:05:23;;;;;;;18.00;5.90;;;8.90;41.50;;;;;;5072211;28;20761;-72
2023/12/16 03:07:49;;;;;;;19.13;5.78;;;8.90;41.40;;;;;;5073481;28;20399;-73
2023/12/16 03:10:14;;;;;;;17.63;5.70;;;8.80;42.00;;;;;;5073585;28;20416;-73
2023/12/16 03:12:40;;;;;;;18.55;6.18;;;8.70;42.30;;;;;;5073440;28;20387;-73
2023/12/16 03:15:07;;;;;;;17.43;6.60;;;8.80;41.70;;;;;;5071900;28;20395;-73
2023/12/16 03:17:33;;;;;;;14.45;5.68;;;8.80;41.00;;;;;;5073416;28;20870;-73
2023/12/16 03:19:59;;;;;;;16.63;6.20;;;8.80;41.40;;;;;;5073353;28;20391;-73
2023/12/16 03:22:24;;;;;;;20.40;5.97;;;8.70;41.90;;;;;;5073643;28;20388;-74
2023/12/16 03:24:50;;;;;;;16.50;5.30;;;8.80;41.40;;;;;;5073772;28;20383;-70
2023/12/16 03:27:15;;;;;;;17.07;5.83;;;8.80;40.60;;;;;;5073283;28;20408;-73
2023/12/16 03:29:41;;;;;;;19.80;5.30;;;8.80;40.60;;;;;;5073406;28;20384;-73
2023/12/16 03:32:06;;;;;;;20.27;5.90;;;8.80;40.50;;;;;;5073044;28;20372;-74
2023/12/16 03:34:32;;;;;;;22.63;5.70;;;8.90;39.70;;;;;;5072630;28;20379;-71
2023/12/16 03:36:58;;;;;;;19.33;6.00;;;8.90;39.50;;;;;;5072715;28;20380;-73
2023/12/16 03:39:23;;;;;;;17.55;5.22;;;8.90;39.10;;;;;;5073115;28;20379;-73
2023/12/16 03:41:49;;;;;;;19.05;5.30;;;8.90;38.90;;;;;;5072722;28;21041;-73
2023/12/16 03:44:14;;;;;;;20.55;5.40;;;8.90;38.60;;;;;;5071573;28;20720;-73
2023/12/16 03:46:40;;;;;;;20.08;5.35;;;8.90;38.40;;;;;;5072625;28;20813;-73
2023/12/16 03:49:05;;;;;;;13.13;5.20;;;8.90;38.50;;;;;;5072816;28;20870;-73
2023/12/16 03:51:31;;;;;;;19.60;5.30;;;8.90;38.20;;;;;;5071446;28;20869;-73
2023/12/16 03:53:59;;;;;;;16.50;5.10;;;8.80;38.40;;;;;;5072319;28;20376;-72
2023/12/16 03:56:27;;;;;;;17.53;5.63;;;8.80;38.40;;;;;;5072443;28;20537;-72
2023/12/16 03:58:53;;;;;;;15.60;5.28;;;8.90;38.50;;;;;;5070853;28;20387;-74
2023/12/16 04:01:18;;;;;;;14.90;5.53;;;8.80;38.40;;;;;;5071314;28;20391;-72
2023/12/16 04:03:44;;;;;;;19.60;4.93;;;8.70;38.70;;;;;;5072091;28;20391;-73
2023/12/16 04:06:13;;;;;;;19.08;5.10;;;8.80;38.40;;;;;;5072413;28;20428;-73
2023/12/16 04:08:40;;;;;;;20.33;5.38;;;8.90;37.80;;;;;;5072596;28;20478;-73
2023/12/16 04:11:06;;;;;;;16.67;5.45;;;8.80;37.90;;;;;;5072151;28;20463;-73
2023/12/16 04:13:34;;;;;;;14.05;5.63;;;8.80;37.80;;;;;;5073232;28;20469;-72
2023/12/16 04:16:00;;;;;;;15.37;5.00;;;8.90;37.70;;;;;;5072102;28;20425;-74
2023/12/16 04:18:26;;;;;;;22.10;5.40;;;9.00;36.70;;;;;;5072085;28;20468;-73
2023/12/16 04:20:51;;;;;;;18.80;5.35;;;9.00;36.40;;;;;;5072129;28;20388;-73
2023/12/16 04:23:17;;;;;;;18.63;5.40;;;9.00;36.50;;;;;;5072016;28;20387;-73
2023/12/16 04:25:42;;;;;;;15.43;5.38;;;9.00;36.60;;;;;;5071605;28;20826;-72
2023/12/16 04:28:08;;;;;;;22.58;5.97;;;9.00;36.40;;;;;;5071611;28;20890;-73
2023/12/16 04:30:33;;;;;;;17.10;5.00;;;8.90;36.40;;;;;;5070607;28;20391;-73
2023/12/16 04:32:59;;;;;;;16.40;4.97;;;8.90;36.40;;;;;;5070762;28;20403;-73
2023/12/16 04:35:25;;;;;;;18.40;5.10;;;8.90;36.60;;;;;;5071678;28;20844;-73
2023/12/16 04:37:50;;;;;;;16.75;5.07;;;8.90;36.90;;;;;;5071874;28;20834;-73
2023/12/16 04:40:16;;;;;;;17.83;5.10;;;8.90;36.80;;;;;;5071753;28;20383;-73
2023/12/16 04:42:42;;;;;;;13.93;4.90;;;8.90;36.70;;;;;;5071563;28;20471;-72
2023/12/16 04:45:08;;;;;;;17.08;5.25;;;8.80;37.00;;;;;;5071240;28;20388;-72
2023/12/16 04:47:36;;;;;;;18.77;5.10;;;8.80;37.00;;;;;;5071549;28;20924;-72
2023/12/16 04:50:03;;;;;;;14.63;5.50;;;8.80;36.90;;;;;;5071671;28;20390;-73
2023/12/16 04:52:28;;;;;;;16.50;5.40;;;8.80;36.90;;;;;;5072044;28;20387;-73
2023/12/16 04:54:54;;;;;;;15.73;4.80;;;8.80;36.80;;;;;;5071918;28;20476;-73
2023/12/16 04:57:19;;;;;;;15.73;5.20;;;8.90;36.60;;;;;;5071272;28;20811;-72
2023/12/16 04:59:45;;;;;;;15.60;5.00;;;8.80;37.00;;;;;;5071221;28;20396;-72
2023/12/16 05:02:11;;;;;;;21.20;5.43;;;8.90;36.60;;;;;;5069791;28;20462;-72
2023/12/16 05:04:36;;;;;;;16.73;5.10;;;8.80;36.90;;;;;;5069374;28;20418;-73
2023/12/16 05:07:02;;;;;;;15.83;5.30;;;8.80;37.20;;;;;;5071466;28;20480;-72
2023/12/16 05:09:27;;;;;;;18.13;5.53;;;8.80;37.50;;;;;;5071831;28;20457;-72
2023/12/16 05:11:53;;;;;;;16.30;5.10;;;8.60;38.20;;;;;;5083129;28;20405;-72
2023/12/16 05:14:19;;;;;;;16.77;5.73;;;8.70;38.40;;;;;;5090338;28;20384;-71
2023/12/16 05:16:44;;;;;;;16.90;5.50;;;8.70;38.20;;;;;;5078838;28;20380;-72
2023/12/16 05:19:10;;;;;;;18.63;5.40;;;8.70;38.60;;;;;;5070197;28;20394;-71
2023/12/16 05:21:35;;;;;;;17.73;6.00;;;8.80;38.20;;;;;;5071042;28;20386;-71
2023/12/16 05:24:01;;;;;;;20.27;5.80;;;8.80;38.40;;;;;;5070458;28;20402;-71
2023/12/16 05:26:27;;;;;;;20.65;6.40;;;8.80;38.30;;;;;;5070411;28;20410;-72
2023/12/16 05:28:52;;;;;;;19.83;6.20;;;8.80;38.40;;;;;;5070417;28;20435;-72
2023/12/16 05:31:18;;;;;;;20.15;6.10;;;8.70;39.00;;;;;;5070565;28;20445;-72
2023/12/16 05:33:44;;;;;;;18.27;5.88;;;8.80;38.40;;;;;;5070455;28;20738;-72
2023/12/16 05:36:10;;;;;;;14.15;5.13;;;8.60;39.10;;;;;;5070585;28;20724;-72
2023/12/16 05:38:35;;;;;;;17.80;6.20;;;8.50;39.70;;;;;;5070931;28;20402;-73
2023/12/16 05:41:02;;;;;;;17.37;5.97;;;8.60;39.50;;;;;;5070496;28;20429;-72
2023/12/16 05:43:27;;;;;;;21.00;5.95;;;8.60;39.20;;;;;;5070485;28;20430;-72
2023/12/16 05:45:53;;;;;;;17.80;5.90;;;8.60;39.60;;;;;;5069213;28;20442;-73
2023/12/16 05:48:19;;;;;;;19.75;6.72;;;8.50;40.30;;;;;;5070345;28;20411;-73
2023/12/16 05:50:45;;;;;;;18.00;5.47;;;8.50;40.60;;;;;;5070185;28;20387;-72
2023/12/16 05:53:10;;;;;;;24.00;5.70;;;8.50;40.80;;;;;;5070303;28;20569;-72
2023/12/16 05:55:36;;;;;;;18.70;5.40;;;8.50;40.90;;;;;;5070540;28;20383;-73
2023/12/16 05:58:02;;;;;;;19.27;5.50;;;8.60;40.20;;;;;;5071003;28;20386;-74
2023/12/16 06:00:28;;;;;;;16.67;5.50;;;8.60;40.20;;;;;;5071685;28;20430;-73
2023/12/16 06:02:53;;;;;;;16.00;6.00;;;8.60;40.20;;;;;;5072326;28;20383;-73
2023/12/16 06:05:19;;;;;;;13.93;5.27;;;8.60;39.90;;;;;;5071579;28;20467;-74
2023/12/16 06:07:46;;;;;;;19.88;5.57;;;8.60;39.80;;;;;;5071870;28;20443;-73
2023/12/16 06:10:12;;;;;;;14.63;5.40;;;8.50;40.50;;;;;;5069537;28;20465;-73
2023/12/16 06:12:38;;;;;;;15.73;5.43;;;8.50;40.40;;;;;;5070594;28;20383;-73
2023/12/16 06:15:04;;;;;;;13.77;5.18;;;8.60;40.20;;;;;;5070202;28;20395;-73
2023/12/16 06:17:29;;;;;;;18.23;5.50;;;8.70;39.80;;;;;;5073345;28;20383;-73
2023/12/16 06:19:55;;;;;;;27.43;6.27;;;8.60;39.70;;;;;;5074378;28;20392;-73
2023/12/16 06:22:20;;;;;;;19.30;5.40;;;8.90;38.60;;;;;;5074380;28;20407;-73
2023/12/16 06:24:46;;;;;;;17.13;5.20;;;8.80;38.60;;;;;;5074123;28;20380;-73
2023/12/16 06:27:11;;;;;;;14.50;5.33;;;8.70;39.40;;;;;;5073890;28;20403;-74
2023/12/16 06:29:39;;;;;;;16.67;5.50;;;8.80;39.20;;;;;;5074206;28;20963;-74
2023/12/16 06:32:05;;;;;;;16.40;5.00;;;8.70;39.50;;;;;;5074135;28;20384;-74
2023/12/16 06:34:30;;;;;;;19.67;5.40;;;8.80;38.90;;;;;;5074146;28;20485;-73
2023/12/16 06:36:56;;;;;;;20.40;5.53;;;8.80;38.90;;;;;;5073834;28;20723;-73
2023/12/16 06:39:22;;;;;;;20.00;5.43;;;8.80;38.20;;;;;;5074106;28;20463;-73
2023/12/16 06:41:48;;;;;;;16.73;5.10;;;9.00;38.10;;;;;;5073767;28;20380;-73
2023/12/16 06:44:13;;;;;;;16.37;5.00;;;9.00;37.90;;;;;;5072635;28;20382;-73
2023/12/16 06:46:39;;;;;;;19.70;5.73;;;8.90;38.40;;;;;;5073797;28;20379;-74
2023/12/16 06:49:04;;;;;;;20.57;5.90;;;8.80;38.90;;;;;;5073793;28;20510;-73
2023/12/16 06:51:30;;;;;;;16.07;5.33;;;8.90;38.60;;;;;;5073478;28;20817;-74
2023/12/16 06:53:55;;;;;;;18.20;5.23;;;8.90;38.90;;;;;;5071850;28;20404;-73
2023/12/16 06:56:21;;;;;;;17.53;5.10;;;8.80;39.20;;;;;;5072303;28;20395;-73
2023/12/16 06:58:47;;;;;;;19.53;5.47;;;9.00;38.70;;;;;;5072573;28;20419;-73
2023/12/16 07:01:13;;;;;;;20.20;5.60;;;8.90;38.90;;;;;;5073891;28;20391;-73
2023/12/16 07:03:39;;;;;;;17.70;5.03;;;8.90;38.90;;;;;;5073748;28;20398;-73
2023/12/16 07:06:05;;;;;;;15.63;4.75;;;9.00;38.90;;;;;;5073520;28;20403;-73
2023/12/16 07:08:31;;;;;;;14.85;5.28;;;8.80;39.50;;;;;;5073189;28;20769;-71
2023/12/16 07:10:57;;;;;;;14.00;5.03;;;8.80;39.90;;;;;;5073298;28;20376;-73
2023/12/16 07:13:22;;;;;;;17.90;5.30;;;8.70;40.50;;;;;;5073280;28;20394;-74
2023/12/16 07:15:48;;;;;;;18.80;5.07;;;8.90;39.40;;;;;;5073578;28;20375;-72
2023/12/16 07:18:13;;;;;;;20.00;5.30;;;8.90;39.50;;;;;;5073232;28;20846;-72
2023/12/16 07:20:39;;;;;;;19.88;5.78;;;8.90;39.50;;;;;;5073467;28;20390;-72
2023/12/16 07:23:04;;;;;;;15.60;4.80;;;8.90;39.80;;;;;;5073224;28;20406;-72
2023/12/16 07:25:31;;;;;;;22.47;5.40;;;8.90;39.90;;;;;;5073297;28;20786;-73
2023/12/16 07:27:56;;;;;;;24.17;5.00;;;8.80;40.10;;;;;;5073925;28;20445;-73
2023/12/16 07:30:22;;;;;;;18.40;5.20;;;8.70;40.90;;;;;;5073398;28;20411;-73
2023/12/16 07:32:48;;;;;;;16.57;5.43;;;8.70;41.60;;;;;;5074034;28;20479;-73
2023/12/16 07:35:15;;;;;;;20.27;5.57;;;8.60;42.20;;;;;;5073842;28;20375;-73
2023/12/16 07:37:41;;;;;;;21.13;6.25;;;8.60;41.70;;;;;;5074818;28;20785;-73
2023/12/16 07:40:08;;;;;;;15.95;5.07;;;8.70;41.60;;;;;;5072692;28;20391;-74
2023/12/16 07:42:37;;;;;;;17.83;5.47;;;8.70;41.90;;;;;;5076980;28;20408;-74
2023/12/16 07:45:04;;;;;;;24.00;6.50;;;8.60;42.90;;;;;;5073445;28;20426;-73
2023/12/16 07:47:31;;;;;;;17.40;5.10;;;8.60;42.80;;;;;;5075671;28;20771;-74
2023/12/16 07:49:57;;;;;;;13.10;5.03;;;8.60;42.60;;;;;;5073744;28;20387;-75
2023/12/16 07:52:23;;;;;;;21.90;6.10;;;8.60;43.10;;;;;;5075102;28;20383;-74
2023/12/16 07:54:48;;;;;;;17.65;6.25;;;8.50;43.50;;;;;;5075325;28;20372;-72
2023/12/16 07:57:14;;;;;;;21.50;5.83;;;8.50;44.00;;;;;;5074923;28;20985;-74
2023/12/16 07:59:43;;;;;;;17.00;5.40;;;8.40;43.70;;;;;;5075115;28;20928;-73
2023/12/16 08:02:09;;;;;;;22.13;5.20;;;8.50;43.60;;;;;;5074148;28;20384;-73
2023/12/16 08:04:37;;;;;;;16.70;5.40;;;8.40;44.30;;;;;;5073342;28;20390;-72
2023/12/16 08:07:03;;;;;;;16.88;5.32;;;8.30;45.20;;;;;;5071324;28;20392;-72
2023/12/16 08:09:28;;;;;;;16.03;5.47;;;8.20;45.40;;;;;;5073555;28;20476;-72
2023/12/16 08:11:58;;;;;;;18.40;5.40;;;8.30;45.00;;;;;;5072819;28;20391;-72
2023/12/16 08:14:24;;;;;;;18.05;5.72;;;8.20;45.40;;;;;;5072608;28;20745;-71
2023/12/16 08:16:50;;;;;;;19.05;5.30;;;8.20;45.50;;;;;;5072300;28;20387;-71
2023/12/16 08:19:15;;;;;;;14.02;4.75;;;8.20;45.60;;;;;;5072627;28;20412;-72
2023/12/16 08:21:41;;;;;;;16.92;5.70;;;8.20;45.80;;;;;;5072573;28;20558;-73
2023/12/16 08:24:07;;;;;;;21.70;5.38;;;8.20;45.90;;;;;;5072613;28;20742;-73
2023/12/16 08:26:32;;;;;;;18.85;5.40;;;8.10;46.70;;;;;;5086676;22;20443;-74
2023/12/16 08:28:58;;;;;;;23.47;5.77;;;8.10;46.70;;;;;;5072774;28;20802;-72
2023/12/16 08:31:23;;;;;;;16.90;5.20;;;8.20;45.80;;;;;;5072332;28;20944;-73
2023/12/16 08:33:49;;;;;;;18.35;5.20;;;8.30;45.60;;;;;;5071525;28;20383;-74
2023/12/16 08:36:15;;;;;;;17.75;5.22;;;8.40;45.00;;;;;;5071453;28;20395;-74
2023/12/16 08:38:40;;;;;;;23.20;5.05;;;8.40;44.90;;;;;;5071309;28;20404;-72
2023/12/16 08:41:08;;;;;;;20.10;5.32;;;8.50;44.20;;;;;;5071040;28;20470;-74
2023/12/16 08:43:34;;;;;;;17.00;5.05;;;8.60;43.10;;;;;;5071407;28;20471;-73
2023/12/16 08:46:00;;;;;;;17.30;4.80;;;8.50;43.40;;;;;;5071238;28;20469;-75
2023/12/16 08:48:26;;;;;;;19.15;5.45;;;8.60;43.10;;;;;;5071174;28;20396;-74
2023/12/16 08:50:52;;;;;;;18.30;5.90;;;8.70;42.90;;;;;;5071175;28;20388;-73
2023/12/16 08:53:19;;;;;;;15.52;5.78;;;9.00;41.80;;;;;;5071158;28;20376;-72
2023/12/16 08:55:44;;;;;;;18.48;5.43;;;9.20;40.60;;;;;;5071117;28;20383;-74
2023/12/16 08:58:10;;;;;;;12.90;4.25;;;9.30;39.90;;;;;;5070972;28;20403;-73
2023/12/16 09:00:36;;;;;;;14.18;5.13;;;9.30;39.30;;;;;;5071348;28;20774;-74
2023/12/16 09:03:01;;;;;;;20.85;4.88;;;9.30;39.00;;;;;;5071074;28;20973;-72
2023/12/16 09:05:28;;;;;;;14.45;5.30;;;9.20;39.10;;;;;;5070657;28;20380;-74
2023/12/16 09:07:54;;;;;;;13.52;4.80;;;9.10;39.90;;;;;;5070851;28;20403;-73
2023/12/16 09:10:19;;;;;;;15.60;4.70;;;9.10;39.90;;;;;;5069442;28;20411;-73
2023/12/16 09:12:47;;;;;;;20.27;4.77;;;9.10;40.10;;;;;;5069181;28;20384;-72
2023/12/16 09:15:13;;;;;;;15.27;4.95;;;9.30;39.70;;;;;;5070737;28;20367;-72
2023/12/16 09:17:38;;;;;;;19.00;5.00;;;9.40;38.90;;;;;;5070526;28;20382;-74
2023/12/16 09:20:06;;;;;;;18.57;4.67;;;9.50;38.70;;;;;;5070728;28;20484;-74
2023/12/16 09:22:31;;;;;;;14.18;4.15;;;9.50;38.40;;;;;;5070391;28;20392;-73
2023/12/16 09:24:57;;;;;;;24.77;5.30;;;9.60;38.20;;;;;;5071333;28;20391;-74
2023/12/16 09:27:23;;;;;;;15.23;4.77;;;9.70;37.90;;;;;;5075260;28;20590;-74
2023/12/16 09:29:48;;;;;;;20.75;5.68;;;9.80;37.70;;;;;;5070557;28;20471;-72
2023/12/16 09:32:14;;;;;;;23.33;4.88;;;9.90;37.50;;;;;;5070331;28;20383;-73
2023/12/16 09:34:41;;;;;;;19.10;4.47;;;9.90;37.00;;;;;;5070254;28;20376;-75
2023/12/16 09:37:08;;;;;;;20.38;5.15;;;9.80;37.50;;;;;;5070016;28;20746;-73
2023/12/16 09:39:34;;;;;;;21.02;4.60;;;9.90;37.50;;;;;;5070399;28;20379;-72
2023/12/16 09:42:02;;;;;;;20.50;5.78;;;9.70;38.40;;;;;;5070282;28;20388;-75
2023/12/16 09:44:34;;;;;;;16.73;5.22;;;9.60;39.00;;;;;;5070195;28;20387;-74
2023/12/16 09:47:00;;;;;;;23.30;5.28;;;9.60;39.30;;;;;;5070132;28;20384;-72
2023/12/16 09:49:26;;;;;;;21.45;5.50;;;9.70;39.20;;;;;;5070417;28;20387;-74
2023/12/16 09:51:52;;;;;;;19.25;5.43;;;9.90;38.20;;;;;;5069928;28;20380;-74
2023/12/16 09:54:18;;;;;;;18.55;4.78;;;9.90;38.20;;;;;;5069854;28;20724;-74
2023/12/16 09:56:48;;;;;;;23.20;5.82;;;9.80;38.30;;;;;;5069764;28;20765;-73
2023/12/16 09:59:16;;;;;;;15.73;4.40;;;10.00;38.00;;;;;;5068405;28;20398;-71
2023/12/16 10:01:52;;;;;;;21.00;5.07;;;10.40;36.60;;;;;;5070099;28;20412;-73
2023/12/16 10:04:18;;;;;;;21.63;5.18;;;10.40;36.40;;;;;;5068970;28;20408;-73
2023/12/16 10:06:44;;;;;;;15.10;4.73;;;10.30;36.80;;;;;;5068583;28;20387;-71
2023/12/16 10:09:09;;;;;;;23.10;5.30;;;10.20;37.10;;;;;;5070375;28;20501;-73
2023/12/16 10:11:39;;;;;;;12.53;5.23;;;10.10;37.60;;;;;;5068858;28;20423;-71
2023/12/16 10:14:05;;;;;;;15.57;5.10;;;10.10;38.10;;;;;;5069980;28;20791;-73
2023/12/16 10:16:31;;;;;;;26.83;6.53;;;10.20;38.00;;;;;;5070197;28;20532;-72
2023/12/16 10:18:57;;;;;;;20.83;6.70;;;10.40;37.70;;;;;;5070340;28;20855;-72
2023/12/16 10:21:28;;;;;;;20.37;6.03;;;10.50;36.90;;;;;;5069421;28;20486;-72
2023/12/16 10:24:01;;;;;;;17.40;5.78;;;10.50;37.40;;;;;;5071255;28;20382;-72
2023/12/16 10:26:30;;;;;;;21.45;5.90;;;10.70;36.20;;;;;;5071251;28;20442;-71
2023/12/16 10:28:57;;;;;;;20.33;5.75;;;10.80;35.60;;;;;;5070446;28;20399;-74
2023/12/16 10:31:24;;;;;;;22.48;5.78;;;11.00;35.00;;;;;;5069232;28;20897;-72
2023/12/16 10:33:50;;;;;;;17.65;5.00;;;11.00;34.80;;;;;;5069840;28;20471;-72
2023/12/16 10:36:17;;;;;;;15.20;4.78;;;10.90;35.60;;;;;;5070954;28;20384;-76
2023/12/16 10:38:42;;;;;;;21.38;5.25;;;10.90;35.30;;;;;;5071201;28;20975;-73
2023/12/16 10:41:09;;;;;;;21.30;5.50;;;11.10;34.90;;;;;;5069336;28;20395;-73
2023/12/16 10:43:34;;;;;;;20.63;5.75;;;11.10;35.00;;;;;;5071059;28;20417;-71
2023/12/16 10:46:04;;;;;;;18.10;5.07;;;11.00;35.40;;;;;;5070120;28;20395;-74
2023/12/16 10:48:34;;;;;;;19.53;4.90;;;11.20;34.80;;;;;;5070515;28;20613;-72
2023/12/16 10:51:05;;;;;;;19.17;5.30;;;11.30;34.60;;;;;;5069220;28;20480;-72
2023/12/16 10:53:45;;;;;;;21.23;4.70;;;11.20;34.70;;;;;;5070658;28;20384;-72
2023/12/16 10:56:17;;;;;;;14.77;4.30;;;11.20;34.80;;;;;;5070396;28;20400;-73
2023/12/16 10:59:05;;;;;;;19.23;5.03;;;11.20;35.00;;;;;;5070257;28;20471;-73
2023/12/16 11:01:38;;;;;;;23.92;5.50;;;11.30;34.60;;;;;;5070243;28;20859;-71
2023/12/16 11:04:11;;;;;;;20.33;5.28;;;11.00;35.40;;;;;;5074541;28;20384;-74
2023/12/16 11:06:48;;;;;;;24.23;5.38;;;11.30;34.70;;;;;;5075789;28;20719;-72
2023/12/16 11:09:15;;;;;;;19.23;5.50;;;11.40;34.60;;;;;;5073190;28;20400;-71
2023/12/16 11:11:42;;;;;;;16.73;5.03;;;11.40;34.70;;;;;;5073405;28;20398;-71
2023/12/16 11:14:08;;;;;;;23.52;5.40;;;11.30;35.00;;;;;;5073612;28;20826;-72
2023/12/16 11:17:14;;;;;;;23.00;5.25;;;11.30;35.30;;;;;;5073674;28;20380;-72
2023/12/16 11:19:45;;;;;;;18.13;5.55;;;11.40;34.90;;;;;;5073787;28;20715;-73
2023/12/16 11:22:16;;;;;;;19.92;5.40;;;11.60;34.50;;;;;;5073796;28;20388;-74
2023/12/16 11:24:42;;;;;;;18.58;5.20;;;11.60;34.50;;;;;;5072720;28;20394;-71
2023/12/16 11:27:08;;;;;;;25.27;5.90;;;11.60;34.60;;;;;;5073437;28;20431;-73
2023/12/16 11:29:34;;;;;;;21.73;5.43;;;11.30;35.40;;;;;;5071739;28;20716;-72
2023/12/16 11:32:00;;;;;;;31.35;6.10;;;11.30;35.40;;;;;;5072968;28;20383;-72
2023/12/16 11:34:49;;;;;;;28.80;5.70;;;11.30;35.80;;;;;;5072911;28;20456;-72
2023/12/16 11:37:35;;;;;;;21.58;5.80;;;11.20;36.20;;;;;;5071478;28;20435;-72
2023/12/16 11:40:07;;;;;;;23.20;5.10;;;11.20;36.30;;;;;;5074502;28;20436;-72
2023/12/16 11:42:46;;;;;;;28.42;5.97;;;11.20;36.50;;;;;;5072829;28;20428;-72
2023/12/16 11:45:36;;;;;;;16.95;4.30;;;11.10;36.70;;;;;;5072199;28;20443;-73
2023/12/16 11:48:02;;;;;;;21.65;5.63;;;11.20;36.50;;;;;;5073450;28;20411;-72
2023/12/16 11:50:28;;;;;;;24.83;4.72;;;11.10;37.30;;;;;;5072736;28;20387;-73
2023/12/16 11:52:53;;;;;;;21.83;4.75;;;11.10;37.40;;;;;;5072175;28;20388;-73
2023/12/16 11:55:19;;;;;;;21.27;4.73;;;11.10;37.50;;;;;;5072725;28;20376;-71
2023/12/16 11:57:48;;;;;;;19.13;4.83;;;11.10;37.70;;;;;;5072126;28;20408;-72
2023/12/16 12:00:16;;;;;;;26.23;5.30;;;11.10;38.00;;;;;;5071007;28;20761;-73
2023/12/16 12:02:42;;;;;;;19.13;5.18;;;11.10;38.00;;;;;;5072750;28;20835;-73
2023/12/16 12:05:12;;;;;;;23.80;5.13;;;11.10;38.20;;;;;;5073806;28;20380;-73
2023/12/16 12:07:41;;;;;;;22.63;5.68;;;11.20;37.90;;;;;;5074129;28;20460;-75
2023/12/16 12:10:07;;;;;;;27.90;5.40;;;11.40;37.60;;;;;;5072416;28;20383;-73
2023/12/16 12:12:32;;;;;;;15.27;4.35;;;11.40;37.60;;;;;;5073169;28;20738;-71
2023/12/16 12:14:58;;;;;;;20.80;5.07;;;11.40;37.40;;;;;;5072120;28;20380;-74
2023/12/16 12:17:26;;;;;;;20.67;4.63;;;11.40;37.80;;;;;;5074890;28;20390;-72
2023/12/16 12:19:51;;;;;;;20.35;4.80;;;11.50;37.70;;;;;;5073709;28;20391;-72
2023/12/16 12:22:20;;;;;;;23.75;6.10;;;11.60;37.50;;;;;;5073119;28;20384;-72
2023/12/16 12:24:45;;;;;;;18.17;4.60;;;11.60;37.30;;;;;;5073484;28;20496;-73
2023/12/16 12:27:11;;;;;;;23.17;5.93;;;11.60;37.70;;;;;;5071913;28;20434;-71
2023/12/16 12:29:57;;;;;;;23.20;5.03;;;11.70;37.70;;;;;;5074555;28;20384;-72
2023/12/16 12:32:27;;;;;;;18.58;4.90;;;11.80;37.30;;;;;;5077609;28;20375;-72
2023/12/16 12:35:13;;;;;;;26.42;4.90;;;11.80;37.50;;;;;;5078279;28;20750;-72
2023/12/16 12:37:40;;;;;;;23.92;4.78;;;11.80;37.90;;;;;;5078695;28;20383;-74
2023/12/16 12:40:12;;;;;;;17.83;4.22;;;11.70;38.20;;;;;;5076911;28;20399;-72